sensor_id;sensor_type;location;lat;lon;timestamp;P1;P2;P0
55549;PMS7003;41397;49.972;18.944;2024-03-22T00:02:58;47;39;27
55549;PMS7003;41397;49.972;18.944;2024-03-22T00:05:59;55;46;30
55549;PMS7003;41397;49.972;18.944;2024-03-22T00:09:01;49;41;28
55549;PMS7003;41397;49.972;18.944;2024-03-22T00:12:02;52;44;30
55549;PMS7003;41397;49.972;18.944;2024-03-22T00:15:05;48;40;27
55549;PMS7003;41397;49.972;18.944;2024-03-22T00:18:07;53;43;26
55549;PMS7003;41397;49.972;18.944;2024-03-22T00:21:08;46;39;25
55549;PMS7003;41397;49.972;18.944;2024-03-22T00:24:10;60;50;28
55549;PMS7003;41397;49.972;18.944;2024-03-22T00:27:12;40;35;24
55549;PMS7003;41397;49.972;18.944;2024-03-22T00:30:13;50;41;26
55549;PMS7003;41397;49.972;18.944;2024-03-22T00:33:15;24;21;5
55549;PMS7003;41397;49.972;18.944;2024-03-22T00:36:17;48;40;26
55549;PMS7003;41397;49.972;18.944;2024-03-22T00:39:18;45;37;26
55549;PMS7003;41397;49.972;18.944;2024-03-22T00:42:19;48;38;26
55549;PMS7003;41397;49.972;18.944;2024-03-22T00:45:23;48;39;27
55549;PMS7003;41397;49.972;18.944;2024-03-22T00:48:24;44;38;25
55549;PMS7003;41397;49.972;18.944;2024-03-22T00:51:25;51;43;26
55549;PMS7003;41397;49.972;18.944;2024-03-22T00:54:27;43;35;25
55549;PMS7003;41397;49.972;18.944;2024-03-22T00:57:31;43;37;23
55549;PMS7003;41397;49.972;18.944;2024-03-22T01:00:32;40;35;25
55549;PMS7003;41397;49.972;18.944;2024-03-22T01:03:33;51;43;29
55549;PMS7003;41397;49.972;18.944;2024-03-22T01:06:34;45;37;25
55549;PMS7003;41397;49.972;18.944;2024-03-22T01:09:39;49;41;26
55549;PMS7003;41397;49.972;18.944;2024-03-22T01:12:40;47;39;24
55549;PMS7003;41397;49.972;18.944;2024-03-22T01:15:41;47;38;23
55549;PMS7003;41397;49.972;18.944;2024-03-22T01:18:43;44;38;25
55549;PMS7003;41397;49.972;18.944;2024-03-22T01:21:47;43;37;22
55549;PMS7003;41397;49.972;18.944;2024-03-22T01:24:48;42;37;24
55549;PMS7003;41397;49.972;18.944;2024-03-22T01:27:49;36;31;23
55549;PMS7003;41397;49.972;18.944;2024-03-22T01:30:52;45;38;23
55549;PMS7003;41397;49.972;18.944;2024-03-22T01:33:55;44;37;22
55549;PMS7003;41397;49.972;18.944;2024-03-22T01:36:56;45;36;23
55549;PMS7003;41397;49.972;18.944;2024-03-22T01:39:57;40;34;22
55549;PMS7003;41397;49.972;18.944;2024-03-22T01:42:58;46;37;23
55549;PMS7003;41397;49.972;18.944;2024-03-22T01:46:03;43;36;24
55549;PMS7003;41397;49.972;18.944;2024-03-22T01:49:05;37;32;22
55549;PMS7003;41397;49.972;18.944;2024-03-22T01:52:07;35;32;22
55549;PMS7003;41397;49.972;18.944;2024-03-22T01:55:09;45;34;23
55549;PMS7003;41397;49.972;18.944;2024-03-22T01:58:10;40;34;23
55549;PMS7003;41397;49.972;18.944;2024-03-22T02:01:13;40;34;22
55549;PMS7003;41397;49.972;18.944;2024-03-22T02:04:14;39;33;23
55549;PMS7003;41397;49.972;18.944;2024-03-22T02:07:15;32;29;22
55549;PMS7003;41397;49.972;18.944;2024-03-22T02:10:18;38;33;21
55549;PMS7003;41397;49.972;18.944;2024-03-22T02:13:20;39;34;23
55549;PMS7003;41397;49.972;18.944;2024-03-22T02:16:21;28;26;18
55549;PMS7003;41397;49.972;18.944;2024-03-22T02:19:22;25;24;13
55549;PMS7003;41397;49.972;18.944;2024-03-22T02:22:26;35;31;21
55549;PMS7003;41397;49.972;18.944;2024-03-22T02:25:28;39;34;19
55549;PMS7003;41397;49.972;18.944;2024-03-22T02:28:30;39;34;22
55549;PMS7003;41397;49.972;18.944;2024-03-22T02:31:32;29;26;18
55549;PMS7003;41397;49.972;18.944;2024-03-22T02:34:34;30;28;20
55549;PMS7003;41397;49.972;18.944;2024-03-22T02:37:36;32;30;18
55549;PMS7003;41397;49.972;18.944;2024-03-22T02:40:37;33;29;19
55549;PMS7003;41397;49.972;18.944;2024-03-22T02:43:38;27;24;18
55549;PMS7003;41397;49.972;18.944;2024-03-22T02:46:42;35;30;20
55549;PMS7003;41397;49.972;18.944;2024-03-22T02:49:44;32;29;16
55549;PMS7003;41397;49.972;18.944;2024-03-22T02:52:45;28;27;17
55549;PMS7003;41397;49.972;18.944;2024-03-22T02:55:46;28;26;16
55549;PMS7003;41397;49.972;18.944;2024-03-22T02:58:50;26;24;16
55549;PMS7003;41397;49.972;18.944;2024-03-22T03:01:51;30;28;18
55549;PMS7003;41397;49.972;18.944;2024-03-22T03:04:53;38;33;21
55549;PMS7003;41397;49.972;18.944;2024-03-22T03:07:54;31;28;19
55549;PMS7003;41397;49.972;18.944;2024-03-22T03:10:58;24;24;17
55549;PMS7003;41397;49.972;18.944;2024-03-22T03:13:59;24;23;18
55549;PMS7003;41397;49.972;18.944;2024-03-22T03:17:01;21;21;14
55549;PMS7003;41397;49.972;18.944;2024-03-22T03:20:04;21;21;15
55549;PMS7003;41397;49.972;18.944;2024-03-22T03:23:13;28;27;18
55549;PMS7003;41397;49.972;18.944;2024-03-22T03:26:15;24;24;16
55549;PMS7003;41397;49.972;18.944;2024-03-22T03:29:17;25;25;18
55549;PMS7003;41397;49.972;18.944;2024-03-22T03:32:18;19;19;14
55549;PMS7003;41397;49.972;18.944;2024-03-22T03:35:19;27;26;19
55549;PMS7003;41397;49.972;18.944;2024-03-22T03:38:20;22;22;16
55549;PMS7003;41397;49.972;18.944;2024-03-22T03:41:22;26;24;16
55549;PMS7003;41397;49.972;18.944;2024-03-22T03:44:24;29;27;17
55549;PMS7003;41397;49.972;18.944;2024-03-22T03:47:25;26;26;18
55549;PMS7003;41397;49.972;18.944;2024-03-22T03:50:26;25;22;15
55549;PMS7003;41397;49.972;18.944;2024-03-22T03:53:27;29;27;17
55549;PMS7003;41397;49.972;18.944;2024-03-22T03:56:28;28;27;18
55549;PMS7003;41397;49.972;18.944;2024-03-22T03:59:33;22;22;16
55549;PMS7003;41397;49.972;18.944;2024-03-22T04:02:34;26;25;16
55549;PMS7003;41397;49.972;18.944;2024-03-22T04:05:35;27;25;16
55549;PMS7003;41397;49.972;18.944;2024-03-22T04:08:36;30;28;19
55549;PMS7003;41397;49.972;18.944;2024-03-22T04:11:42;27;25;16
55549;PMS7003;41397;49.972;18.944;2024-03-22T04:14:45;26;25;15
55549;PMS7003;41397;49.972;18.944;2024-03-22T04:17:46;34;29;17
55549;PMS7003;41397;49.972;18.944;2024-03-22T04:23:55;24;23;16
55549;PMS7003;41397;49.972;18.944;2024-03-22T04:26:56;23;23;16
55549;PMS7003;41397;49.972;18.944;2024-03-22T04:29:59;29;27;19
55549;PMS7003;41397;49.972;18.944;2024-03-22T04:33:01;23;22;15
55549;PMS7003;41397;49.972;18.944;2024-03-22T04:36:02;26;25;17
55549;PMS7003;41397;49.972;18.944;2024-03-22T04:39:04;26;25;16
55549;PMS7003;41397;49.972;18.944;2024-03-22T04:42:05;20;20;17
55549;PMS7003;41397;49.972;18.944;2024-03-22T04:45:07;30;26;19
55549;PMS7003;41397;49.972;18.944;2024-03-22T04:48:09;27;26;18
55549;PMS7003;41397;49.972;18.944;2024-03-22T04:51:13;29;26;17
55549;PMS7003;41397;49.972;18.944;2024-03-22T04:54:14;22;21;14
55549;PMS7003;41397;49.972;18.944;2024-03-22T04:57:15;29;27;19
55549;PMS7003;41397;49.972;18.944;2024-03-22T05:00:16;33;28;20
55549;PMS7003;41397;49.972;18.944;2024-03-22T05:03:18;30;28;20
55549;PMS7003;41397;49.972;18.944;2024-03-22T05:06:19;34;28;20
55549;PMS7003;41397;49.972;18.944;2024-03-22T05:09:20;22;22;17
55549;PMS7003;41397;49.972;18.944;2024-03-22T05:12:25;34;29;20
55549;PMS7003;41397;49.972;18.944;2024-03-22T05:15:26;31;28;18
55549;PMS7003;41397;49.972;18.944;2024-03-22T05:18:28;26;26;18
55549;PMS7003;41397;49.972;18.944;2024-03-22T05:21:29;30;29;18
55549;PMS7003;41397;49.972;18.944;2024-03-22T05:24:33;28;26;18
55549;PMS7003;41397;49.972;18.944;2024-03-22T05:27:34;26;25;15
55549;PMS7003;41397;49.972;18.944;2024-03-22T05:30:36;29;26;17
55549;PMS7003;41397;49.972;18.944;2024-03-22T05:33:38;33;30;20
55549;PMS7003;41397;49.972;18.944;2024-03-22T05:36:41;26;25;15
55549;PMS7003;41397;49.972;18.944;2024-03-22T05:39:42;37;32;20
55549;PMS7003;41397;49.972;18.944;2024-03-22T05:42:43;35;27;18
55549;PMS7003;41397;49.972;18.944;2024-03-22T05:45:45;31;28;19
55549;PMS7003;41397;49.972;18.944;2024-03-22T05:48:49;31;29;20
55549;PMS7003;41397;49.972;18.944;2024-03-22T05:51:52;30;28;15
55549;PMS7003;41397;49.972;18.944;2024-03-22T05:54:53;30;27;18
55549;PMS7003;41397;49.972;18.944;2024-03-22T05:57:56;24;23;18
55549;PMS7003;41397;49.972;18.944;2024-03-22T06:00:57;43;35;20
55549;PMS7003;41397;49.972;18.944;2024-03-22T06:03:58;22;21;15
55549;PMS7003;41397;49.972;18.944;2024-03-22T06:07:00;30;27;18
55549;PMS7003;41397;49.972;18.944;2024-03-22T06:10:05;27;26;19
55549;PMS7003;41397;49.972;18.944;2024-03-22T06:13:07;25;24;16
55549;PMS7003;41397;49.972;18.944;2024-03-22T06:16:08;32;29;19
55549;PMS7003;41397;49.972;18.944;2024-03-22T06:19:10;27;26;16
55549;PMS7003;41397;49.972;18.944;2024-03-22T06:22:11;20;20;14
55549;PMS7003;41397;49.972;18.944;2024-03-22T06:25:13;16;16;13
55549;PMS7003;41397;49.972;18.944;2024-03-22T06:28:14;20;20;16
55549;PMS7003;41397;49.972;18.944;2024-03-22T06:31:16;14;14;10
55549;PMS7003;41397;49.972;18.944;2024-03-22T06:34:18;16;16;12
55549;PMS7003;41397;49.972;18.944;2024-03-22T06:37:21;21;21;13
55549;PMS7003;41397;49.972;18.944;2024-03-22T06:40:22;11;10;9
55549;PMS7003;41397;49.972;18.944;2024-03-22T06:43:23;14;14;10
55549;PMS7003;41397;49.972;18.944;2024-03-22T06:46:24;19;19;11
55549;PMS7003;41397;49.972;18.944;2024-03-22T06:49:28;10;10;9
55549;PMS7003;41397;49.972;18.944;2024-03-22T06:52:30;14;14;10
55549;PMS7003;41397;49.972;18.944;2024-03-22T06:55:31;12;12;9
55549;PMS7003;41397;49.972;18.944;2024-03-22T06:58:32;11;11;9
55549;PMS7003;41397;49.972;18.944;2024-03-22T07:01:36;12;12;8
55549;PMS7003;41397;49.972;18.944;2024-03-22T07:04:38;13;13;7
55549;PMS7003;41397;49.972;18.944;2024-03-22T07:07:39;11;7;5
55549;PMS7003;41397;49.972;18.944;2024-03-22T07:10:40;10;10;9
55549;PMS7003;41397;49.972;18.944;2024-03-22T07:13:44;11;11;10
55549;PMS7003;41397;49.972;18.944;2024-03-22T07:16:45;12;12;9
55549;PMS7003;41397;49.972;18.944;2024-03-22T07:19:47;14;13;9
55549;PMS7003;41397;49.972;18.944;2024-03-22T07:22:48;10;10;8
55549;PMS7003;41397;49.972;18.944;2024-03-22T07:25:52;12;12;9
55549;PMS7003;41397;49.972;18.944;2024-03-22T07:28:53;12;12;11
55549;PMS7003;41397;49.972;18.944;2024-03-22T07:31:55;9;9;6
55549;PMS7003;41397;49.972;18.944;2024-03-22T07:34:56;15;15;11
55549;PMS7003;41397;49.972;18.944;2024-03-22T07:38:00;16;16;12
55549;PMS7003;41397;49.972;18.944;2024-03-22T07:41:01;13;12;9
55549;PMS7003;41397;49.972;18.944;2024-03-22T07:44:04;8;8;6
55549;PMS7003;41397;49.972;18.944;2024-03-22T07:47:06;9;9;7
55549;PMS7003;41397;49.972;18.944;2024-03-22T07:50:08;15;15;8
55549;PMS7003;41397;49.972;18.944;2024-03-22T07:53:10;15;15;7
55549;PMS7003;41397;49.972;18.944;2024-03-22T07:56:14;8;8;6
55549;PMS7003;41397;49.972;18.944;2024-03-22T07:59:16;10;10;8
55549;PMS7003;41397;49.972;18.944;2024-03-22T08:02:17;12;12;8
55549;PMS7003;41397;49.972;18.944;2024-03-22T08:05:20;11;11;8
55549;PMS7003;41397;49.972;18.944;2024-03-22T08:08:22;13;10;6
55549;PMS7003;41397;49.972;18.944;2024-03-22T08:11:23;7;7;5
55549;PMS7003;41397;49.972;18.944;2024-03-22T08:14:24;12;12;10
55549;PMS7003;41397;49.972;18.944;2024-03-22T08:17:25;8;8;4
55549;PMS7003;41397;49.972;18.944;2024-03-22T08:20:27;11;11;10
55549;PMS7003;41397;49.972;18.944;2024-03-22T08:23:29;12;12;9
55549;PMS7003;41397;49.972;18.944;2024-03-22T08:26:32;10;9;7
55549;PMS7003;41397;49.972;18.944;2024-03-22T08:29:33;12;12;9
55549;PMS7003;41397;49.972;18.944;2024-03-22T08:32:34;15;15;9
55549;PMS7003;41397;49.972;18.944;2024-03-22T08:35:35;19;19;9
55549;PMS7003;41397;49.972;18.944;2024-03-22T08:38:40;20;20;12
55549;PMS7003;41397;49.972;18.944;2024-03-22T08:41:41;18;18;10
55549;PMS7003;41397;49.972;18.944;2024-03-22T08:44:42;18;18;13
55549;PMS7003;41397;49.972;18.944;2024-03-22T08:47:43;18;14;12
55549;PMS7003;41397;49.972;18.944;2024-03-22T08:50:48;13;13;9
55549;PMS7003;41397;49.972;18.944;2024-03-22T08:53:49;13;13;9
55549;PMS7003;41397;49.972;18.944;2024-03-22T08:56:50;11;11;9
55549;PMS7003;41397;49.972;18.944;2024-03-22T08:59:51;24;19;10
55549;PMS7003;41397;49.972;18.944;2024-03-22T09:02:56;11;11;9
55549;PMS7003;41397;49.972;18.944;2024-03-22T09:05:58;12;12;9
55549;PMS7003;41397;49.972;18.944;2024-03-22T09:09:00;18;15;9
55549;PMS7003;41397;49.972;18.944;2024-03-22T09:12:01;11;10;6
55549;PMS7003;41397;49.972;18.944;2024-03-22T09:15:04;15;15;10
55549;PMS7003;41397;49.972;18.944;2024-03-22T09:18:06;11;11;9
55549;PMS7003;41397;49.972;18.944;2024-03-22T09:21:07;16;16;11
55549;PMS7003;41397;49.972;18.944;2024-03-22T09:24:11;13;13;9
55549;PMS7003;41397;49.972;18.944;2024-03-22T09:27:12;17;17;12
55549;PMS7003;41397;49.972;18.944;2024-03-22T09:30:13;21;21;17
55549;PMS7003;41397;49.972;18.944;2024-03-22T09:33:15;15;15;10
55549;PMS7003;41397;49.972;18.944;2024-03-22T09:36:18;19;17;11
55549;PMS7003;41397;49.972;18.944;2024-03-22T09:39:19;17;17;13
55549;PMS7003;41397;49.972;18.944;2024-03-22T09:42:22;16;16;11
55549;PMS7003;41397;49.972;18.944;2024-03-22T09:45:26;17;17;14
55549;PMS7003;41397;49.972;18.944;2024-03-22T09:48:28;12;12;6
55549;PMS7003;41397;49.972;18.944;2024-03-22T09:51:30;18;18;13
55549;PMS7003;41397;49.972;18.944;2024-03-22T09:54:32;16;15;13
55549;PMS7003;41397;49.972;18.944;2024-03-22T09:57:38;17;17;13
55549;PMS7003;41397;49.972;18.944;2024-03-22T10:00:40;17;17;13
55549;PMS7003;41397;49.972;18.944;2024-03-22T10:03:44;14;14;8
55549;PMS7003;41397;49.972;18.944;2024-03-22T10:06:47;13;12;8
55549;PMS7003;41397;49.972;18.944;2024-03-22T10:09:48;12;12;9
55549;PMS7003;41397;49.972;18.944;2024-03-22T10:12:52;13;12;10
55549;PMS7003;41397;49.972;18.944;2024-03-22T10:15:54;13;13;9
55549;PMS7003;41397;49.972;18.944;2024-03-22T10:18:55;20;20;12
55549;PMS7003;41397;49.972;18.944;2024-03-22T10:25:04;16;16;11
55549;PMS7003;41397;49.972;18.944;2024-03-22T10:28:07;20;20;10
55549;PMS7003;41397;49.972;18.944;2024-03-22T10:31:11;17;17;13
55549;PMS7003;41397;49.972;18.944;2024-03-22T10:34:13;16;16;8
55549;PMS7003;41397;49.972;18.944;2024-03-22T10:37:17;17;17;10
55549;PMS7003;41397;49.972;18.944;2024-03-22T10:40:19;12;11;9
55549;PMS7003;41397;49.972;18.944;2024-03-22T10:43:21;16;15;11
55549;PMS7003;41397;49.972;18.944;2024-03-22T10:46:22;14;14;11
55549;PMS7003;41397;49.972;18.944;2024-03-22T10:49:30;16;16;11
55549;PMS7003;41397;49.972;18.944;2024-03-22T10:55:53;20;20;14
55549;PMS7003;41397;49.972;18.944;2024-03-22T10:58:57;19;19;12
55549;PMS7003;41397;49.972;18.944;2024-03-22T11:02:06;24;24;16
55549;PMS7003;41397;49.972;18.944;2024-03-22T11:11:30;23;23;16
55549;PMS7003;41397;49.972;18.944;2024-03-22T11:14:40;15;15;13
55549;PMS7003;41397;49.972;18.944;2024-03-22T11:17:41;18;18;12
55549;PMS7003;41397;49.972;18.944;2024-03-22T11:20:43;21;21;14
55549;PMS7003;41397;49.972;18.944;2024-03-22T11:23:48;20;20;14
55549;PMS7003;41397;49.972;18.944;2024-03-22T11:26:50;20;19;14
55549;PMS7003;41397;49.972;18.944;2024-03-22T11:29:51;20;20;16
55549;PMS7003;41397;49.972;18.944;2024-03-22T11:32:55;22;22;16
55549;PMS7003;41397;49.972;18.944;2024-03-22T11:36:00;22;22;17
55549;PMS7003;41397;49.972;18.944;2024-03-22T11:39:03;21;21;13
55549;PMS7003;41397;49.972;18.944;2024-03-22T11:42:05;17;17;13
55549;PMS7003;41397;49.972;18.944;2024-03-22T11:45:11;14;14;11
55549;PMS7003;41397;49.972;18.944;2024-03-22T11:48:15;18;18;12
55549;PMS7003;41397;49.972;18.944;2024-03-22T11:51:18;27;27;14
55549;PMS7003;41397;49.972;18.944;2024-03-22T11:54:19;23;23;17
55549;PMS7003;41397;49.972;18.944;2024-03-22T11:57:21;18;18;11
55549;PMS7003;41397;49.972;18.944;2024-03-22T12:00:23;33;26;18
55549;PMS7003;41397;49.972;18.944;2024-03-22T12:03:27;23;23;11
55549;PMS7003;41397;49.972;18.944;2024-03-22T12:06:29;26;25;18
55549;PMS7003;41397;49.972;18.944;2024-03-22T12:09:30;19;19;13
55549;PMS7003;41397;49.972;18.944;2024-03-22T12:12:31;20;20;14
55549;PMS7003;41397;49.972;18.944;2024-03-22T12:15:33;26;25;16
55549;PMS7003;41397;49.972;18.944;2024-03-22T12:18:34;17;17;13
55549;PMS7003;41397;49.972;18.944;2024-03-22T12:21:35;19;19;14
55549;PMS7003;41397;49.972;18.944;2024-03-22T12:24:37;19;19;11
55549;PMS7003;41397;49.972;18.944;2024-03-22T12:27:38;16;16;11
55549;PMS7003;41397;49.972;18.944;2024-03-22T12:30:39;16;16;13
55549;PMS7003;41397;49.972;18.944;2024-03-22T12:33:42;19;19;12
55549;PMS7003;41397;49.972;18.944;2024-03-22T12:36:43;15;15;12
55549;PMS7003;41397;49.972;18.944;2024-03-22T12:39:45;18;18;10
55549;PMS7003;41397;49.972;18.944;2024-03-22T12:45:37;22;19;15
55549;PMS7003;41397;49.972;18.944;2024-03-22T12:48:38;23;23;13
55549;PMS7003;41397;49.972;18.944;2024-03-22T12:51:40;18;16;13
55549;PMS7003;41397;49.972;18.944;2024-03-22T12:54:44;18;18;13
55549;PMS7003;41397;49.972;18.944;2024-03-22T12:57:45;20;19;14
55549;PMS7003;41397;49.972;18.944;2024-03-22T13:00:47;20;20;14
55549;PMS7003;41397;49.972;18.944;2024-03-22T13:03:48;19;19;14
55549;PMS7003;41397;49.972;18.944;2024-03-22T13:06:52;21;21;16
55549;PMS7003;41397;49.972;18.944;2024-03-22T13:09:54;21;21;17
55549;PMS7003;41397;49.972;18.944;2024-03-22T13:12:55;23;23;15
55549;PMS7003;41397;49.972;18.944;2024-03-22T13:15:58;29;28;19
55549;PMS7003;41397;49.972;18.944;2024-03-22T13:19:00;19;19;13
55549;PMS7003;41397;49.972;18.944;2024-03-22T13:22:01;26;26;19
55549;PMS7003;41397;49.972;18.944;2024-03-22T13:25:03;23;23;18
55549;PMS7003;41397;49.972;18.944;2024-03-22T13:28:09;14;14;11
55549;PMS7003;41397;49.972;18.944;2024-03-22T13:31:10;22;22;16
55549;PMS7003;41397;49.972;18.944;2024-03-22T13:34:12;27;25;18
55549;PMS7003;41397;49.972;18.944;2024-03-22T13:37:13;18;18;12
55549;PMS7003;41397;49.972;18.944;2024-03-22T13:40:15;21;21;12
55549;PMS7003;41397;49.972;18.944;2024-03-22T13:43:17;29;25;16
55549;PMS7003;41397;49.972;18.944;2024-03-22T13:46:18;21;21;16
55549;PMS7003;41397;49.972;18.944;2024-03-22T13:49:19;24;24;15
55549;PMS7003;41397;49.972;18.944;2024-03-22T13:52:24;21;21;14
55549;PMS7003;41397;49.972;18.944;2024-03-22T13:55:26;25;25;15
55549;PMS7003;41397;49.972;18.944;2024-03-22T13:58:27;18;18;11
55549;PMS7003;41397;49.972;18.944;2024-03-22T14:01:29;21;21;14
55549;PMS7003;41397;49.972;18.944;2024-03-22T14:04:30;20;20;17
55549;PMS7003;41397;49.972;18.944;2024-03-22T14:07:33;26;26;16
55549;PMS7003;41397;49.972;18.944;2024-03-22T14:10:34;21;21;16
55549;PMS7003;41397;49.972;18.944;2024-03-22T14:13:35;28;26;21
55549;PMS7003;41397;49.972;18.944;2024-03-22T14:16:40;19;19;15
55549;PMS7003;41397;49.972;18.944;2024-03-22T14:19:42;20;20;14
55549;PMS7003;41397;49.972;18.944;2024-03-22T14:22:44;23;22;12
55549;PMS7003;41397;49.972;18.944;2024-03-22T14:25:51;25;25;18
55549;PMS7003;41397;49.972;18.944;2024-03-22T14:28:52;19;18;15
55549;PMS7003;41397;49.972;18.944;2024-03-22T14:31:54;20;20;12
55549;PMS7003;41397;49.972;18.944;2024-03-22T14:34:56;16;16;11
55549;PMS7003;41397;49.972;18.944;2024-03-22T14:37:57;20;20;14
55549;PMS7003;41397;49.972;18.944;2024-03-22T14:40:58;20;20;15
55549;PMS7003;41397;49.972;18.944;2024-03-22T14:44:00;22;22;15
55549;PMS7003;41397;49.972;18.944;2024-03-22T14:47:01;16;16;13
55549;PMS7003;41397;49.972;18.944;2024-03-22T14:50:03;18;18;16
55549;PMS7003;41397;49.972;18.944;2024-03-22T14:53:10;15;15;11
55549;PMS7003;41397;49.972;18.944;2024-03-22T14:56:12;21;18;12
55549;PMS7003;41397;49.972;18.944;2024-03-22T14:59:15;21;21;15
55549;PMS7003;41397;49.972;18.944;2024-03-22T15:02:16;19;19;15
55549;PMS7003;41397;49.972;18.944;2024-03-22T15:05:17;15;15;9
55549;PMS7003;41397;49.972;18.944;2024-03-22T15:08:19;18;18;13
55549;PMS7003;41397;49.972;18.944;2024-03-22T15:11:21;21;20;14
55549;PMS7003;41397;49.972;18.944;2024-03-22T15:14:23;20;20;14
55549;PMS7003;41397;49.972;18.944;2024-03-22T15:17:24;16;16;12
55549;PMS7003;41397;49.972;18.944;2024-03-22T15:20:25;32;31;21
55549;PMS7003;41397;49.972;18.944;2024-03-22T15:23:29;19;19;13
55549;PMS7003;41397;49.972;18.944;2024-03-22T15:26:31;17;17;13
55549;PMS7003;41397;49.972;18.944;2024-03-22T15:29:33;25;25;15
55549;PMS7003;41397;49.972;18.944;2024-03-22T15:32:34;19;19;16
55549;PMS7003;41397;49.972;18.944;2024-03-22T15:35:35;17;17;12
55549;PMS7003;41397;49.972;18.944;2024-03-22T15:38:38;17;17;16
55549;PMS7003;41397;49.972;18.944;2024-03-22T15:41:39;17;17;15
55549;PMS7003;41397;49.972;18.944;2024-03-22T15:44:41;25;23;17
55549;PMS7003;41397;49.972;18.944;2024-03-22T15:47:43;16;16;12
55549;PMS7003;41397;49.972;18.944;2024-03-22T15:50:46;22;22;14
55549;PMS7003;41397;49.972;18.944;2024-03-22T15:53:47;16;14;10
55549;PMS7003;41397;49.972;18.944;2024-03-22T15:56:49;14;14;11
55549;PMS7003;41397;49.972;18.944;2024-03-22T15:59:50;22;22;17
55549;PMS7003;41397;49.972;18.944;2024-03-22T16:02:51;24;24;16
55549;PMS7003;41397;49.972;18.944;2024-03-22T16:05:52;22;22;16
55549;PMS7003;41397;49.972;18.944;2024-03-22T16:08:54;26;20;13
55549;PMS7003;41397;49.972;18.944;2024-03-22T16:11:55;19;19;15
55549;PMS7003;41397;49.972;18.944;2024-03-22T16:14:56;22;22;15
55549;PMS7003;41397;49.972;18.944;2024-03-22T16:17:58;19;19;14
55549;PMS7003;41397;49.972;18.944;2024-03-22T16:21:00;17;15;12
55549;PMS7003;41397;49.972;18.944;2024-03-22T16:24:01;26;26;13
55549;PMS7003;41397;49.972;18.944;2024-03-22T16:27:04;18;18;10
55549;PMS7003;41397;49.972;18.944;2024-03-22T16:30:06;23;22;11
55549;PMS7003;41397;49.972;18.944;2024-03-22T16:33:08;21;21;14
55549;PMS7003;41397;49.972;18.944;2024-03-22T16:36:09;25;25;16
55549;PMS7003;41397;49.972;18.944;2024-03-22T16:39:11;24;24;17
55549;PMS7003;41397;49.972;18.944;2024-03-22T16:42:12;23;23;12
55549;PMS7003;41397;49.972;18.944;2024-03-22T16:45:15;32;31;22
55549;PMS7003;41397;49.972;18.944;2024-03-22T16:48:20;20;19;15
55549;PMS7003;41397;49.972;18.944;2024-03-22T16:51:21;22;22;17
55549;PMS7003;41397;49.972;18.944;2024-03-22T16:54:23;18;18;12
55549;PMS7003;41397;49.972;18.944;2024-03-22T16:57:24;18;18;15
55549;PMS7003;41397;49.972;18.944;2024-03-22T17:00:26;25;25;17
55549;PMS7003;41397;49.972;18.944;2024-03-22T17:03:27;26;26;18
55549;PMS7003;41397;49.972;18.944;2024-03-22T17:06:28;33;31;22
55549;PMS7003;41397;49.972;18.944;2024-03-22T17:09:31;35;31;21
55549;PMS7003;41397;49.972;18.944;2024-03-22T17:12:32;25;25;18
55549;PMS7003;41397;49.972;18.944;2024-03-22T17:15:34;21;21;17
55549;PMS7003;41397;49.972;18.944;2024-03-22T17:18:35;31;30;20
55549;PMS7003;41397;49.972;18.944;2024-03-22T17:21:39;29;29;19
55549;PMS7003;41397;49.972;18.944;2024-03-22T17:24:41;13;13;12
55549;PMS7003;41397;49.972;18.944;2024-03-22T17:27:43;23;23;14
55549;PMS7003;41397;49.972;18.944;2024-03-22T17:30:44;23;23;14
55549;PMS7003;41397;49.972;18.944;2024-03-22T17:33:47;25;25;17
55549;PMS7003;41397;49.972;18.944;2024-03-22T17:36:48;16;16;12
55549;PMS7003;41397;49.972;18.944;2024-03-22T17:39:50;27;27;18
55549;PMS7003;41397;49.972;18.944;2024-03-22T17:42:51;37;33;24
55549;PMS7003;41397;49.972;18.944;2024-03-22T17:45:58;37;34;21
55549;PMS7003;41397;49.972;18.944;2024-03-22T17:49:00;31;30;19
55549;PMS7003;41397;49.972;18.944;2024-03-22T17:52:01;24;24;19
55549;PMS7003;41397;49.972;18.944;2024-03-22T17:55:03;36;33;22
55549;PMS7003;41397;49.972;18.944;2024-03-22T17:58:05;34;32;20
55549;PMS7003;41397;49.972;18.944;2024-03-22T18:01:07;25;25;16
55549;PMS7003;41397;49.972;18.944;2024-03-22T18:04:08;47;36;23
55549;PMS7003;41397;49.972;18.944;2024-03-22T18:07:10;55;45;30
55549;PMS7003;41397;49.972;18.944;2024-03-22T18:10:12;46;40;27
55549;PMS7003;41397;49.972;18.944;2024-03-22T18:13:13;42;35;23
55549;PMS7003;41397;49.972;18.944;2024-03-22T18:16:16;44;38;23
55549;PMS7003;41397;49.972;18.944;2024-03-22T18:19:17;51;43;26
55549;PMS7003;41397;49.972;18.944;2024-03-22T18:22:20;43;37;24
55549;PMS7003;41397;49.972;18.944;2024-03-22T18:25:22;44;38;26
55549;PMS7003;41397;49.972;18.944;2024-03-22T18:28:24;46;39;25
55549;PMS7003;41397;49.972;18.944;2024-03-22T18:31:26;53;44;30
55549;PMS7003;41397;49.972;18.944;2024-03-22T18:34:29;75;68;42
55549;PMS7003;41397;49.972;18.944;2024-03-22T18:37:31;89;80;43
55549;PMS7003;41397;49.972;18.944;2024-03-22T18:40:35;70;58;34
55549;PMS7003;41397;49.972;18.944;2024-03-22T18:43:37;51;43;30
55549;PMS7003;41397;49.972;18.944;2024-03-22T18:46:38;47;40;27
55549;PMS7003;41397;49.972;18.944;2024-03-22T18:49:45;48;41;27
55549;PMS7003;41397;49.972;18.944;2024-03-22T18:52:52;41;35;24
55549;PMS7003;41397;49.972;18.944;2024-03-22T18:55:55;46;40;23
55549;PMS7003;41397;49.972;18.944;2024-03-22T18:58:56;46;34;24
55549;PMS7003;41397;49.972;18.944;2024-03-22T19:01:58;53;41;25
55549;PMS7003;41397;49.972;18.944;2024-03-22T19:04:59;43;35;23
55549;PMS7003;41397;49.972;18.944;2024-03-22T19:08:05;48;42;26
55549;PMS7003;41397;49.972;18.944;2024-03-22T19:11:10;47;38;26
55549;PMS7003;41397;49.972;18.944;2024-03-22T19:14:14;55;46;29
55549;PMS7003;41397;49.972;18.944;2024-03-22T19:17:18;50;43;29
55549;PMS7003;41397;49.972;18.944;2024-03-22T19:20:20;50;41;28
55549;PMS7003;41397;49.972;18.944;2024-03-22T19:23:22;59;48;30
55549;PMS7003;41397;49.972;18.944;2024-03-22T19:26:23;62;47;31
55549;PMS7003;41397;49.972;18.944;2024-03-22T19:29:24;59;49;32
55549;PMS7003;41397;49.972;18.944;2024-03-22T19:32:26;67;55;33
55549;PMS7003;41397;49.972;18.944;2024-03-22T19:35:28;68;53;33